createdAt,value
2023-01-19T14:46:46.748Z,97681.20
2023-01-19T14:49:33.679Z,97682.40
2023-01-19T14:52:23.571Z,97683.20
2023-01-19T14:55:03.192Z,97680.60
2023-01-19T14:57:41.212Z,97687.00
2023-01-19T15:00:25.200Z,97687.40
2023-01-19T15:03:01.554Z,97691.00
2023-01-19T15:05:38.454Z,97691.20
2023-01-19T15:08:21.252Z,97695.60
2023-01-19T15:10:59.015Z,97696.20
2023-01-19T15:13:35.386Z,97703.60
2023-01-19T15:16:12.906Z,97708.00
2023-01-19T15:18:49.215Z,97706.20
2023-01-19T15:21:27.248Z,97712.20
2023-01-19T15:24:03.617Z,97713.40
2023-01-19T15:26:42.713Z,97714.80
2023-01-19T15:29:29.211Z,97720.00
2023-01-19T15:32:06.934Z,97724.40
2023-01-19T15:34:43.507Z,97724.20
2023-01-19T15:37:20.366Z,97726.20
2023-01-19T15:39:56.708Z,97729.60
2023-01-19T15:42:33.521Z,97732.40
2023-01-19T15:45:39.782Z,97728.20
2023-01-19T15:48:17.051Z,97732.00
2023-01-19T15:50:53.451Z,97729.60
2023-01-19T15:53:30.633Z,97737.80
2023-01-19T15:56:07.944Z,97738.40
2023-01-19T15:58:44.871Z,97742.80
2023-01-19T16:01:23.997Z,97746.80
2023-01-19T16:04:01.805Z,97749.80
2023-01-19T16:06:39.061Z,97749.80
2023-01-19T16:09:18.627Z,97747.40
2023-01-19T16:11:58.183Z,97746.60
2023-01-19T16:14:34.802Z,97746.00
2023-01-19T16:17:11.200Z,97744.80
2023-01-19T16:19:48.053Z,97748.80
2023-01-19T16:22:24.771Z,97750.00
2023-01-19T16:25:01.361Z,97747.60
2023-01-19T16:27:37.805Z,97750.20
2023-01-19T16:30:19.448Z,97750.60
2023-01-19T16:32:55.851Z,97754.80
2023-01-19T16:35:32.444Z,97756.80
2023-01-19T16:38:09.509Z,97759.80
2023-01-19T16:40:48.354Z,97764.20
2023-01-19T16:43:26.862Z,97760.40
2023-01-19T16:46:06.321Z,97758.60
2023-01-19T16:54:19.643Z,97761.80
2023-01-19T16:56:57.637Z,97761.00
2023-01-19T16:59:34.196Z,97764.00
2023-01-19T17:02:12.188Z,97760.60
2023-01-19T17:04:48.776Z,97756.00
2023-01-19T17:07:25.145Z,97759.40
2023-01-19T17:10:01.491Z,97760.20
2023-01-19T17:12:37.867Z,97762.00
2023-01-19T17:15:15.830Z,97763.60
2023-01-19T17:17:52.242Z,97764.60
2023-01-19T17:20:29.029Z,97758.80
2023-01-19T17:23:05.581Z,97759.40
2023-01-19T17:25:42.060Z,97762.00
2023-01-19T17:28:18.625Z,97768.80
2023-01-19T17:30:55.281Z,97772.20
2023-01-19T17:33:31.844Z,97774.80
2023-01-19T17:36:13.665Z,97778.00
2023-01-19T17:38:50.230Z,97779.20
2023-01-19T17:41:30.266Z,97789.80
2023-01-19T17:44:10.488Z,97787.80
2023-01-19T17:46:46.901Z,97792.80
2023-01-19T17:49:23.268Z,97797.00
2023-01-19T17:51:59.629Z,97798.80
2023-01-19T17:54:36.301Z,97806.40
2023-01-19T17:57:12.967Z,97802.80
2023-01-19T17:59:49.659Z,97803.00
2023-01-19T18:02:26.275Z,97802.00
2023-01-19T18:05:03.507Z,97801.60
2023-01-19T18:07:39.980Z,97807.60
2023-01-19T18:10:18.506Z,97805.60
2023-01-19T18:12:56.016Z,97803.00
2023-01-19T18:15:32.358Z,97804.00
2023-01-19T18:18:08.924Z,97804.20
2023-01-19T18:20:45.390Z,97806.20
2023-01-19T18:23:21.714Z,97808.40
2023-01-19T18:26:05.923Z,97807.40
2023-01-19T18:28:42.674Z,97811.00
2023-01-19T18:31:21.733Z,97811.80
2023-01-19T18:33:58.583Z,97810.20
2023-01-19T18:36:35.189Z,97805.80
2023-01-19T18:39:11.923Z,97812.00
2023-01-19T18:41:48.290Z,97810.80
2023-01-19T18:44:24.991Z,97813.20
2023-01-19T18:47:01.582Z,97815.40
2023-01-19T18:49:38.609Z,97812.80
2023-01-19T18:52:15.239Z,97804.80
2023-01-19T18:54:52.875Z,97802.00
2023-01-19T18:57:30.535Z,97798.20
2023-01-19T19:00:09.557Z,97792.60
2023-01-19T19:02:46.227Z,97794.20
2023-01-19T19:05:23.181Z,97793.40
2023-01-19T19:07:59.629Z,97799.80
2023-01-19T19:10:36.700Z,97798.80
2023-01-19T19:13:14.876Z,97805.80
2023-01-19T19:15:52.718Z,97816.60
2023-01-19T19:18:29.286Z,97833.80
2023-01-19T19:21:09.115Z,97841.80
2023-01-19T19:23:45.496Z,97848.00
2023-01-19T19:26:22.711Z,97857.60
2023-01-19T19:28:59.257Z,97867.80
2023-01-19T19:31:35.699Z,97877.00
2023-01-19T19:34:12.703Z,97877.60
2023-01-19T19:36:49.405Z,97881.80
2023-01-19T19:39:26.250Z,97878.40
2023-01-19T19:42:02.746Z,97875.60
2023-01-19T19:44:39.213Z,97874.80
2023-01-19T19:47:15.618Z,97882.60
2023-01-19T19:49:54.745Z,97888.00
2023-01-19T19:52:32.137Z,97888.00
2023-01-19T19:55:12.676Z,97888.20
2023-01-19T19:57:49.627Z,97889.80
2023-01-19T20:00:27.808Z,97895.60
2023-01-19T20:03:04.698Z,97901.80
2023-01-19T20:05:43.181Z,97915.40
2023-01-19T20:08:20.116Z,97925.20
2023-01-19T20:10:56.983Z,97936.60
2023-01-19T20:13:35.712Z,97940.00
2023-01-19T20:16:18.247Z,97937.80
2023-01-19T20:18:56.728Z,97945.40
2023-01-19T20:21:37.196Z,97954.40
2023-01-19T20:24:19.746Z,97966.20
2023-01-19T20:26:57.901Z,97967.60
2023-01-19T20:29:34.881Z,97972.20
2023-01-19T20:32:11.921Z,97971.80
2023-01-19T20:34:49.094Z,97965.40
2023-01-19T20:37:25.832Z,97968.80
2023-01-19T20:40:02.574Z,97975.20
2023-01-19T20:42:41.411Z,97979.40
2023-01-19T20:45:18.585Z,97983.40
2023-01-19T20:47:55.451Z,97990.00
2023-01-19T20:50:32.071Z,97989.80
2023-01-19T20:53:08.506Z,97994.60
2023-01-19T20:55:45.181Z,97992.40
2023-01-19T20:58:21.637Z,97987.20
2023-01-19T21:00:58.555Z,97988.00
2023-01-19T21:03:36.574Z,97982.80
2023-01-19T21:06:14.810Z,97991.00
2023-01-19T21:08:51.782Z,97997.00
2023-01-19T21:11:28.559Z,97997.00
2023-01-19T21:14:05.112Z,97996.40
2023-01-19T21:16:42.787Z,97995.00
2023-01-19T21:19:19.529Z,97999.00
2023-01-19T21:21:56.425Z,97991.80
2023-01-19T21:24:33.433Z,97989.00
2023-01-19T21:27:10.105Z,97986.60
2023-01-19T21:29:46.528Z,97983.00
2023-01-19T21:32:22.935Z,97986.60
2023-01-19T21:34:59.777Z,97993.20
2023-01-19T21:37:36.784Z,98002.20
2023-01-19T21:40:16.998Z,98006.60
2023-01-19T21:42:55.114Z,98014.20
2023-01-19T21:45:31.693Z,98026.80
2023-01-19T21:48:08.770Z,98032.00
2023-01-19T21:50:45.431Z,98040.60
2023-01-19T21:53:22.007Z,98043.00
2023-01-19T21:55:58.693Z,98047.00
2023-01-19T21:58:35.045Z,98049.60
2023-01-19T22:01:13.875Z,98062.80
2023-01-19T22:03:50.759Z,98065.00
2023-01-19T22:06:28.608Z,98062.80
2023-01-19T22:09:05.455Z,98066.60
2023-01-19T22:11:41.788Z,98068.40
2023-01-19T22:14:18.991Z,98070.60
2023-01-19T22:16:55.370Z,98064.20
2023-01-19T22:19:32.109Z,98061.80
2023-01-19T22:22:08.384Z,98060.40
2023-01-19T22:24:47.204Z,98063.40
2023-01-19T22:27:24.896Z,98066.60
2023-01-19T22:30:01.331Z,98073.20
2023-01-19T22:32:37.741Z,98079.60
2023-01-19T22:35:15.392Z,98084.20
2023-01-19T22:37:51.897Z,98088.20
2023-01-19T22:40:28.885Z,98089.60
2023-01-19T22:43:05.279Z,98092.40
2023-01-19T22:45:44.928Z,98097.40
2023-01-19T22:48:22.369Z,98092.60
2023-01-19T22:51:02.990Z,98094.40
2023-01-19T22:53:39.267Z,98092.60
2023-01-19T22:56:22.472Z,98101.20
2023-01-19T22:58:59.994Z,98106.20
2023-01-19T23:01:40.714Z,98108.20
2023-01-19T23:04:19.610Z,98108.60
2023-01-19T23:06:57.209Z,98100.00
2023-01-19T23:09:34.412Z,98101.40
2023-01-19T23:12:11.558Z,98119.20
2023-01-19T23:14:48.249Z,98125.00
2023-01-19T23:17:24.816Z,98131.60
2023-01-19T23:20:01.998Z,98137.60
2023-01-19T23:22:38.778Z,98142.80
2023-01-19T23:25:15.682Z,98144.20
2023-01-19T23:27:51.948Z,98136.80
2023-01-19T23:30:28.755Z,98137.60
2023-01-19T23:33:05.363Z,98133.60
2023-01-19T23:35:41.843Z,98133.40
2023-01-19T23:38:18.151Z,98132.40
2023-01-19T23:40:57.641Z,98141.60
2023-01-19T23:43:34.203Z,98143.40
2023-01-19T23:46:14.122Z,98141.20
2023-01-19T23:48:51.244Z,98138.40
2023-01-19T23:51:30.852Z,98135.80
2023-01-19T23:54:07.866Z,98137.80
2023-01-19T23:56:44.320Z,98145.20
2023-01-19T23:59:21.611Z,98146.00
